sensor_id;sensor_type;location;lat;lon;timestamp;pressure;altitude;pressure_sealevel;temperature;humidity
8637;BME280;4356;49.068;8.658;2023-05-10T00:00:24;99290.44;;;22.23;47.23
8637;BME280;4356;49.068;8.658;2023-05-10T00:02:50;99289.06;;;22.21;47.33
8637;BME280;4356;49.068;8.658;2023-05-10T00:05:15;99287.41;;;22.20;47.27
8637;BME280;4356;49.068;8.658;2023-05-10T00:07:41;99289.31;;;22.19;47.15
8637;BME280;4356;49.068;8.658;2023-05-10T00:10:10;99295.63;;;22.20;47.24
8637;BME280;4356;49.068;8.658;2023-05-10T00:12:35;99286.03;;;22.17;47.40
8637;BME280;4356;49.068;8.658;2023-05-10T00:15:01;99285.19;;;22.17;47.33
8637;BME280;4356;49.068;8.658;2023-05-10T00:17:28;99291.50;;;22.17;47.31
8637;BME280;4356;49.068;8.658;2023-05-10T00:19:54;99291.44;;;22.12;47.46
8637;BME280;4356;49.068;8.658;2023-05-10T00:22:19;99295.00;;;22.13;47.14
8637;BME280;4356;49.068;8.658;2023-05-10T00:24:45;99291.19;;;22.14;47.25
8637;BME280;4356;49.068;8.658;2023-05-10T00:27:11;99292.00;;;22.14;47.39
8637;BME280;4356;49.068;8.658;2023-05-10T00:29:36;99288.97;;;22.11;47.39
8637;BME280;4356;49.068;8.658;2023-05-10T00:32:02;99276.66;;;22.08;47.23
8637;BME280;4356;49.068;8.658;2023-05-10T00:34:27;99279.13;;;22.10;47.27
8637;BME280;4356;49.068;8.658;2023-05-10T00:36:53;99281.03;;;22.09;47.37
8637;BME280;4356;49.068;8.658;2023-05-10T00:39:19;99285.38;;;22.10;47.23
8637;BME280;4356;49.068;8.658;2023-05-10T00:41:44;99288.38;;;22.09;47.41
8637;BME280;4356;49.068;8.658;2023-05-10T00:44:10;99287.53;;;22.03;47.19
8637;BME280;4356;49.068;8.658;2023-05-10T00:46:36;99287.28;;;22.05;47.25
8637;BME280;4356;49.068;8.658;2023-05-10T00:49:01;99289.44;;;22.03;47.21
8637;BME280;4356;49.068;8.658;2023-05-10T00:51:27;99297.41;;;22.04;47.30
8637;BME280;4356;49.068;8.658;2023-05-10T00:53:53;99298.47;;;22.03;47.50
8637;BME280;4356;49.068;8.658;2023-05-10T00:56:19;99290.53;;;22.02;47.37
8637;BME280;4356;49.068;8.658;2023-05-10T00:58:48;99292.69;;;22.00;47.41
8637;BME280;4356;49.068;8.658;2023-05-10T01:01:13;99288.56;;;21.97;47.46
8637;BME280;4356;49.068;8.658;2023-05-10T01:03:39;99295.41;;;22.00;47.29
8637;BME280;4356;49.068;8.658;2023-05-10T01:06:05;99290.47;;;21.97;47.41
8637;BME280;4356;49.068;8.658;2023-05-10T01:08:31;99289.38;;;21.98;47.24
8637;BME280;4356;49.068;8.658;2023-05-10T01:10:57;99302.25;;;21.97;47.51
8637;BME280;4356;49.068;8.658;2023-05-10T01:13:34;99298.41;;;21.98;47.41
8637;BME280;4356;49.068;8.658;2023-05-10T01:16:01;99295.38;;;21.95;47.40
8637;BME280;4356;49.068;8.658;2023-05-10T01:18:38;99298.94;;;21.95;47.41
8637;BME280;4356;49.068;8.658;2023-05-10T01:21:22;99292.38;;;21.96;47.35
8637;BME280;4356;49.068;8.658;2023-05-10T01:37:46;99302.13;;;21.87;47.53
8637;BME280;4356;49.068;8.658;2023-05-10T01:40:37;99305.97;;;21.86;47.55
8637;BME280;4356;49.068;8.658;2023-05-10T01:43:08;99294.16;;;21.81;47.53
8637;BME280;4356;49.068;8.658;2023-05-10T01:46:12;99298.03;;;21.85;47.68
8637;BME280;4356;49.068;8.658;2023-05-10T01:48:52;99290.31;;;21.82;47.56
8637;BME280;4356;49.068;8.658;2023-05-10T01:51:29;99295.78;;;21.82;47.58
8637;BME280;4356;49.068;8.658;2023-05-10T01:54:01;99291.41;;;21.81;47.79
8637;BME280;4356;49.068;8.658;2023-05-10T01:56:30;99295.22;;;21.80;47.74
8637;BME280;4356;49.068;8.658;2023-05-10T01:58:58;99294.41;;;21.79;47.65
8637;BME280;4356;49.068;8.658;2023-05-10T02:01:26;99294.06;;;21.76;47.75
8637;BME280;4356;49.068;8.658;2023-05-10T02:03:53;99294.31;;;21.74;47.69
8637;BME280;4356;49.068;8.658;2023-05-10T02:06:20;99310.22;;;21.77;47.64
8637;BME280;4356;49.068;8.658;2023-05-10T02:08:49;99304.19;;;21.75;47.72
8637;BME280;4356;49.068;8.658;2023-05-10T02:11:17;99300.03;;;21.73;47.66
8637;BME280;4356;49.068;8.658;2023-05-10T02:13:44;99310.72;;;21.74;47.83
8637;BME280;4356;49.068;8.658;2023-05-10T02:16:13;99310.97;;;21.73;47.49
8637;BME280;4356;49.068;8.658;2023-05-10T02:18:40;99318.91;;;21.74;47.53
8637;BME280;4356;49.068;8.658;2023-05-10T02:21:07;99316.19;;;21.74;47.67
8637;BME280;4356;49.068;8.658;2023-05-10T02:23:34;99314.28;;;21.75;47.50
8637;BME280;4356;49.068;8.658;2023-05-10T02:26:00;99316.72;;;21.71;47.71
8637;BME280;4356;49.068;8.658;2023-05-10T02:28:27;99306.28;;;21.68;47.47
8637;BME280;4356;49.068;8.658;2023-05-10T02:30:54;99304.88;;;21.66;47.58
8637;BME280;4356;49.068;8.658;2023-05-10T02:33:21;99307.34;;;21.67;47.83
8637;BME280;4356;49.068;8.658;2023-05-10T02:35:47;99313.97;;;21.71;47.57
8637;BME280;4356;49.068;8.658;2023-05-10T02:38:14;99326.00;;;21.70;47.67
8637;BME280;4356;49.068;8.658;2023-05-10T02:40:41;99332.28;;;21.71;47.34
8637;BME280;4356;49.068;8.658;2023-05-10T02:43:12;99325.44;;;21.68;47.62
8637;BME280;4356;49.068;8.658;2023-05-10T02:45:40;99322.38;;;21.65;47.74
8637;BME280;4356;49.068;8.658;2023-05-10T02:48:08;99322.13;;;21.66;47.76
8637;BME280;4356;49.068;8.658;2023-05-10T02:50:35;99332.22;;;21.66;47.71
8637;BME280;4356;49.068;8.658;2023-05-10T02:53:09;99319.34;;;21.61;47.73
8637;BME280;4356;49.068;8.658;2023-05-10T02:55:40;99327.03;;;21.64;47.68
8637;BME280;4356;49.068;8.658;2023-05-10T02:58:06;99333.81;;;21.62;47.64
8637;BME280;4356;49.068;8.658;2023-05-10T03:00:32;99335.22;;;21.64;47.75
8637;BME280;4356;49.068;8.658;2023-05-10T03:02:58;99333.59;;;21.63;47.90
8637;BME280;4356;49.068;8.658;2023-05-10T03:05:23;99329.19;;;21.62;47.77
8637;BME280;4356;49.068;8.658;2023-05-10T03:07:49;99335.75;;;21.61;47.66
8637;BME280;4356;49.068;8.658;2023-05-10T03:10:16;99336.81;;;21.60;47.60
8637;BME280;4356;49.068;8.658;2023-05-10T03:13:02;99337.38;;;21.62;47.63
8637;BME280;4356;49.068;8.658;2023-05-10T03:18:29;99329.72;;;21.59;47.79
8637;BME280;4356;49.068;8.658;2023-05-10T03:21:01;99331.59;;;21.59;47.85
8637;BME280;4356;49.068;8.658;2023-05-10T03:23:43;99328.50;;;21.50;47.63
8637;BME280;4356;49.068;8.658;2023-05-10T03:26:15;99342.22;;;21.55;47.58
8637;BME280;4356;49.068;8.658;2023-05-10T03:28:42;99347.69;;;21.55;47.65
8637;BME280;4356;49.068;8.658;2023-05-10T03:31:09;99347.13;;;21.53;47.96
8637;BME280;4356;49.068;8.658;2023-05-10T03:33:34;99361.09;;;21.57;47.94
8637;BME280;4356;49.068;8.658;2023-05-10T03:36:00;99353.91;;;21.50;47.52
8637;BME280;4356;49.068;8.658;2023-05-10T03:38:26;99352.53;;;21.48;47.62
8637;BME280;4356;49.068;8.658;2023-05-10T03:40:51;99359.97;;;21.52;47.86
8637;BME280;4356;49.068;8.658;2023-05-10T03:43:17;99362.94;;;21.51;47.87
8637;BME280;4356;49.068;8.658;2023-05-10T03:45:42;99372.50;;;21.48;47.79
8637;BME280;4356;49.068;8.658;2023-05-10T03:48:08;99384.34;;;21.54;47.72
8637;BME280;4356;49.068;8.658;2023-05-10T03:50:33;99385.41;;;21.53;47.82
8637;BME280;4356;49.068;8.658;2023-05-10T03:52:58;99374.41;;;21.48;47.70
8637;BME280;4356;49.068;8.658;2023-05-10T03:55:24;99386.72;;;21.50;47.75
8637;BME280;4356;49.068;8.658;2023-05-10T03:57:50;99379.34;;;21.51;47.92
8637;BME280;4356;49.068;8.658;2023-05-10T04:00:15;99386.97;;;21.49;47.85
8637;BME280;4356;49.068;8.658;2023-05-10T04:02:41;99385.09;;;21.49;47.87
8637;BME280;4356;49.068;8.658;2023-05-10T04:05:07;99394.13;;;21.50;47.78
8637;BME280;4356;49.068;8.658;2023-05-10T04:07:32;99383.13;;;21.45;47.78
8637;BME280;4356;49.068;8.658;2023-05-10T04:09:58;99381.78;;;21.47;47.75
8637;BME280;4356;49.068;8.658;2023-05-10T04:12:23;99381.19;;;21.45;47.73
8637;BME280;4356;49.068;8.658;2023-05-10T04:14:49;99380.94;;;21.47;47.57
8637;BME280;4356;49.068;8.658;2023-05-10T04:17:15;99378.72;;;21.44;47.71
8637;BME280;4356;49.068;8.658;2023-05-10T04:19:40;99377.09;;;21.43;47.57
8637;BME280;4356;49.068;8.658;2023-05-10T04:22:06;99376.50;;;21.41;47.73
8637;BME280;4356;49.068;8.658;2023-05-10T04:24:31;99385.28;;;21.43;47.87
8637;BME280;4356;49.068;8.658;2023-05-10T04:26:57;99386.34;;;21.42;47.90
8637;BME280;4356;49.068;8.658;2023-05-10T04:29:22;99375.09;;;21.38;47.91
8637;BME280;4356;49.068;8.658;2023-05-10T04:31:48;99385.50;;;21.41;47.86
8637;BME280;4356;49.068;8.658;2023-05-10T04:34:14;99381.41;;;21.39;48.09
8637;BME280;4356;49.068;8.658;2023-05-10T04:36:39;99390.16;;;21.41;47.74
8637;BME280;4356;49.068;8.658;2023-05-10T04:39:05;99387.38;;;21.36;47.90
8637;BME280;4356;49.068;8.658;2023-05-10T04:41:30;99395.63;;;21.41;47.88
8637;BME280;4356;49.068;8.658;2023-05-10T04:43:56;99387.94;;;21.38;47.82
8637;BME280;4356;49.068;8.658;2023-05-10T04:46:22;99394.47;;;21.37;47.60
8637;BME280;4356;49.068;8.658;2023-05-10T04:48:47;99394.81;;;21.40;47.74
8637;BME280;4356;49.068;8.658;2023-05-10T04:51:13;99392.59;;;21.37;47.91
8637;BME280;4356;49.068;8.658;2023-05-10T04:53:39;99402.44;;;21.38;47.68
8637;BME280;4356;49.068;8.658;2023-05-10T04:56:04;99399.44;;;21.40;47.68
8637;BME280;4356;49.068;8.658;2023-05-10T04:58:30;99396.13;;;21.38;47.89
8637;BME280;4356;49.068;8.658;2023-05-10T05:00:56;99400.22;;;21.35;47.84
8637;BME280;4356;49.068;8.658;2023-05-10T05:03:21;99401.28;;;21.34;47.87
8637;BME280;4356;49.068;8.658;2023-05-10T05:05:50;99398.84;;;21.38;47.81
8637;BME280;4356;49.068;8.658;2023-05-10T05:08:15;99394.75;;;21.35;47.88
8637;BME280;4356;49.068;8.658;2023-05-10T05:10:41;99402.44;;;21.38;47.73
8637;BME280;4356;49.068;8.658;2023-05-10T05:13:06;99401.59;;;21.38;47.89
8637;BME280;4356;49.068;8.658;2023-05-10T05:15:32;99398.31;;;21.36;47.92
8637;BME280;4356;49.068;8.658;2023-05-10T05:17:58;99393.91;;;21.35;47.86
8637;BME280;4356;49.068;8.658;2023-05-10T05:20:23;99405.69;;;21.35;47.65
8637;BME280;4356;49.068;8.658;2023-05-10T05:22:49;99413.63;;;21.37;47.89
8637;BME280;4356;49.068;8.658;2023-05-10T05:25:15;99398.22;;;21.31;47.87
8637;BME280;4356;49.068;8.658;2023-05-10T05:27:41;99420.97;;;21.36;47.95
8637;BME280;4356;49.068;8.658;2023-05-10T05:30:07;99413.63;;;21.37;48.03
8637;BME280;4356;49.068;8.658;2023-05-10T05:32:33;99409.78;;;21.38;48.03
8637;BME280;4356;49.068;8.658;2023-05-10T05:34:58;99418.00;;;21.38;48.06
8637;BME280;4356;49.068;8.658;2023-05-10T05:37:24;99399.88;;;21.32;48.11
8637;BME280;4356;49.068;8.658;2023-05-10T05:39:50;99413.34;;;21.38;48.06
8637;BME280;4356;49.068;8.658;2023-05-10T05:42:16;99424.03;;;21.40;47.99
8637;BME280;4356;49.068;8.658;2023-05-10T05:44:43;99431.19;;;21.41;48.15
8637;BME280;4356;49.068;8.658;2023-05-10T05:47:09;99422.13;;;21.40;48.09
8637;BME280;4356;49.068;8.658;2023-05-10T05:49:36;99420.50;;;21.39;48.20
8637;BME280;4356;49.068;8.658;2023-05-10T05:52:04;99416.41;;;21.42;48.01
8637;BME280;4356;49.068;8.658;2023-05-10T05:54:31;99427.09;;;21.43;47.98
8637;BME280;4356;49.068;8.658;2023-05-10T05:56:58;99423.28;;;21.44;48.00
8637;BME280;4356;49.068;8.658;2023-05-10T05:59:24;99418.56;;;21.40;48.06
8637;BME280;4356;49.068;8.658;2023-05-10T06:01:49;99417.75;;;21.39;47.88
8637;BME280;4356;49.068;8.658;2023-05-10T06:04:15;99426.03;;;21.44;47.92
8637;BME280;4356;49.068;8.658;2023-05-10T06:06:41;99423.88;;;21.46;47.91
8637;BME280;4356;49.068;8.658;2023-05-10T06:09:08;99425.78;;;21.46;47.89
8637;BME280;4356;49.068;8.658;2023-05-10T06:11:33;99436.72;;;21.46;48.01
8637;BME280;4356;49.068;8.658;2023-05-10T06:14:00;99436.44;;;21.47;48.04
8637;BME280;4356;49.068;8.658;2023-05-10T06:16:25;99435.88;;;21.45;48.01
8637;BME280;4356;49.068;8.658;2023-05-10T06:18:51;99439.69;;;21.44;48.01
8637;BME280;4356;49.068;8.658;2023-05-10T06:21:17;99442.16;;;21.46;47.94
8637;BME280;4356;49.068;8.658;2023-05-10T06:23:43;99447.13;;;21.49;48.01
8637;BME280;4356;49.068;8.658;2023-05-10T06:26:09;99444.41;;;21.49;47.94
8637;BME280;4356;49.068;8.658;2023-05-10T06:28:35;99446.00;;;21.45;48.14
8637;BME280;4356;49.068;8.658;2023-05-10T06:31:04;99461.38;;;21.51;47.78
8637;BME280;4356;49.068;8.658;2023-05-10T06:33:29;99459.72;;;21.50;47.94
8637;BME280;4356;49.068;8.658;2023-05-10T06:35:55;99458.91;;;21.49;47.79
8637;BME280;4356;49.068;8.658;2023-05-10T06:38:21;99460.00;;;21.48;47.91
8637;BME280;4356;49.068;8.658;2023-05-10T06:40:47;99462.22;;;21.52;48.06
8637;BME280;4356;49.068;8.658;2023-05-10T06:43:13;99458.38;;;21.52;47.95
8637;BME280;4356;49.068;8.658;2023-05-10T06:45:39;99463.03;;;21.52;47.63
8637;BME280;4356;49.068;8.658;2023-05-10T06:48:05;99457.25;;;21.48;47.79
8637;BME280;4356;49.068;8.658;2023-05-10T06:50:30;99460.22;;;21.47;47.80
8637;BME280;4356;49.068;8.658;2023-05-10T06:52:56;99479.78;;;21.56;47.91
8637;BME280;4356;49.068;8.658;2023-05-10T06:55:25;99473.47;;;21.55;47.97
8637;BME280;4356;49.068;8.658;2023-05-10T06:57:50;99475.63;;;21.53;47.90
8637;BME280;4356;49.068;8.658;2023-05-10T07:00:17;99479.78;;;21.56;48.19
8637;BME280;4356;49.068;8.658;2023-05-10T07:02:43;99478.94;;;21.55;47.95
8637;BME280;4356;49.068;8.658;2023-05-10T07:05:08;99483.56;;;21.55;48.06
8637;BME280;4356;49.068;8.658;2023-05-10T07:07:34;99482.75;;;21.54;47.87
8637;BME280;4356;49.068;8.658;2023-05-10T07:10:00;99480.56;;;21.56;47.76
8637;BME280;4356;49.068;8.658;2023-05-10T07:12:27;99485.00;;;21.57;47.77
8637;BME280;4356;49.068;8.658;2023-05-10T07:14:52;99487.72;;;21.57;47.77
8637;BME280;4356;49.068;8.658;2023-05-10T07:17:18;99484.72;;;21.59;47.86
8637;BME280;4356;49.068;8.658;2023-05-10T07:19:44;99478.34;;;21.53;47.65
8637;BME280;4356;49.068;8.658;2023-05-10T07:22:09;99491.34;;;21.63;47.75
8637;BME280;4356;49.068;8.658;2023-05-10T07:24:35;99484.53;;;21.65;47.88
8637;BME280;4356;49.068;8.658;2023-05-10T07:27:01;99481.00;;;21.65;47.67
8637;BME280;4356;49.068;8.658;2023-05-10T07:29:27;99479.06;;;21.65;47.49
8637;BME280;4356;49.068;8.658;2023-05-10T07:31:53;99485.69;;;21.69;47.75
8637;BME280;4356;49.068;8.658;2023-05-10T07:34:19;99488.16;;;21.71;47.71
8637;BME280;4356;49.068;8.658;2023-05-10T07:36:44;99485.44;;;21.71;47.70
8637;BME280;4356;49.068;8.658;2023-05-10T07:39:10;99490.69;;;21.72;47.57
8637;BME280;4356;49.068;8.658;2023-05-10T07:41:36;99489.84;;;21.72;47.52
8637;BME280;4356;49.068;8.658;2023-05-10T07:44:03;99492.00;;;21.70;47.55
8637;BME280;4356;49.068;8.658;2023-05-10T07:46:29;99490.41;;;21.74;47.46
8637;BME280;4356;49.068;8.658;2023-05-10T07:48:54;99490.69;;;21.72;47.41
8637;BME280;4356;49.068;8.658;2023-05-10T07:51:20;99495.63;;;21.75;47.61
8637;BME280;4356;49.068;8.658;2023-05-10T07:53:46;99502.75;;;21.76;47.64
8637;BME280;4356;49.068;8.658;2023-05-10T07:56:26;99505.22;;;21.78;47.33
8637;BME280;4356;49.068;8.658;2023-05-10T07:59:01;99507.16;;;21.77;47.25
8637;BME280;4356;49.068;8.658;2023-05-10T08:01:33;99505.03;;;21.79;47.45
8637;BME280;4356;49.068;8.658;2023-05-10T08:03:59;99505.03;;;21.79;47.35
8637;BME280;4356;49.068;8.658;2023-05-10T08:06:25;99512.72;;;21.82;47.46
8637;BME280;4356;49.068;8.658;2023-05-10T08:08:55;99511.63;;;21.83;47.32
8637;BME280;4356;49.068;8.658;2023-05-10T08:11:21;99518.50;;;21.86;47.37
8637;BME280;4356;49.068;8.658;2023-05-10T08:13:48;99517.44;;;21.87;47.28
8637;BME280;4356;49.068;8.658;2023-05-10T08:16:15;99511.13;;;21.86;47.29
8637;BME280;4356;49.068;8.658;2023-05-10T08:18:41;99516.34;;;21.88;47.06
8637;BME280;4356;49.068;8.658;2023-05-10T08:21:07;99518.81;;;21.89;47.47
8637;BME280;4356;49.068;8.658;2023-05-10T08:23:33;99505.03;;;21.79;47.35
8637;BME280;4356;49.068;8.658;2023-05-10T08:25:59;99522.13;;;21.91;47.18
8637;BME280;4356;49.068;8.658;2023-05-10T08:28:25;99503.94;;;21.80;47.01
8637;BME280;4356;49.068;8.658;2023-05-10T08:30:51;99520.50;;;21.90;47.17
8637;BME280;4356;49.068;8.658;2023-05-10T08:33:19;99521.81;;;21.88;46.79
8637;BME280;4356;49.068;8.658;2023-05-10T08:35:45;99530.09;;;21.93;46.89
8637;BME280;4356;49.068;8.658;2023-05-10T08:38:11;99534.72;;;21.92;47.10
8637;BME280;4356;49.068;8.658;2023-05-10T08:40:38;99532.56;;;21.94;47.13
8637;BME280;4356;49.068;8.658;2023-05-10T08:43:09;99516.59;;;21.86;47.27
8637;BME280;4356;49.068;8.658;2023-05-10T08:45:40;99538.63;;;21.96;47.14
8637;BME280;4356;49.068;8.658;2023-05-10T08:48:08;99539.72;;;21.95;47.04
8637;BME280;4356;49.068;8.658;2023-05-10T08:50:38;99540.88;;;21.99;46.92
8637;BME280;4356;49.068;8.658;2023-05-10T08:53:06;99539.19;;;21.98;47.03
8637;BME280;4356;49.068;8.658;2023-05-10T08:55:32;99514.44;;;21.88;46.97
8637;BME280;4356;49.068;8.658;2023-05-10T08:57:59;99532.41;;;22.01;46.97
8637;BME280;4356;49.068;8.658;2023-05-10T09:00:26;99526.88;;;21.96;46.95
8637;BME280;4356;49.068;8.658;2023-05-10T09:02:53;99543.09;;;22.02;46.92
8637;BME280;4356;49.068;8.658;2023-05-10T09:05:19;99545.56;;;22.04;47.08
8637;BME280;4356;49.068;8.658;2023-05-10T09:07:45;99548.31;;;22.04;46.81
8637;BME280;4356;49.068;8.658;2023-05-10T09:10:11;99543.41;;;22.06;46.75
8637;BME280;4356;49.068;8.658;2023-05-10T09:12:37;99554.59;;;22.04;46.81
8637;BME280;4356;49.068;8.658;2023-05-10T09:15:05;99552.13;;;22.03;46.77
8637;BME280;4356;49.068;8.658;2023-05-10T09:17:31;99555.66;;;22.03;46.75
8637;BME280;4356;49.068;8.658;2023-05-10T09:19:59;99562.56;;;22.06;47.02
8637;BME280;4356;49.068;8.658;2023-05-10T09:22:25;99553.78;;;22.04;46.76
8637;BME280;4356;49.068;8.658;2023-05-10T09:25:10;99574.66;;;22.10;46.80
8637;BME280;4356;49.068;8.658;2023-05-10T09:27:40;99564.78;;;22.09;46.71
8637;BME280;4356;49.068;8.658;2023-05-10T09:30:07;99567.78;;;22.07;46.83
8637;BME280;4356;49.068;8.658;2023-05-10T09:32:40;99566.72;;;22.08;46.89
8637;BME280;4356;49.068;8.658;2023-05-10T09:35:11;99560.66;;;22.06;46.70
8637;BME280;4356;49.068;8.658;2023-05-10T09:37:39;99564.78;;;22.09;46.63
8637;BME280;4356;49.068;8.658;2023-05-10T09:40:12;99566.72;;;22.08;46.78
8637;BME280;4356;49.068;8.658;2023-05-10T09:42:38;99574.09;;;22.08;46.84
8637;BME280;4356;49.068;8.658;2023-05-10T09:45:05;99573.25;;;22.07;46.79
8637;BME280;4356;49.068;8.658;2023-05-10T09:47:35;99565.88;;;22.08;46.96
8637;BME280;4356;49.068;8.658;2023-05-10T09:50:02;99567.25;;;22.10;46.82
8637;BME280;4356;49.068;8.658;2023-05-10T09:52:54;99570.00;;;22.10;46.79
8637;BME280;4356;49.068;8.658;2023-05-10T09:55:24;99579.88;;;22.11;46.89
8637;BME280;4356;49.068;8.658;2023-05-10T09:57:59;99574.66;;;22.10;47.03
8637;BME280;4356;49.068;8.658;2023-05-10T10:00:26;99568.59;;;22.08;46.84
8637;BME280;4356;49.068;8.658;2023-05-10T10:02:59;99580.41;;;22.08;46.83
8637;BME280;4356;49.068;8.658;2023-05-10T10:05:29;99577.66;;;22.08;46.77
8637;BME280;4356;49.068;8.658;2023-05-10T10:07:56;99575.97;;;22.07;46.68
8637;BME280;4356;49.068;8.658;2023-05-10T10:10:22;99580.13;;;22.10;47.09
8637;BME280;4356;49.068;8.658;2023-05-10T10:12:48;99582.28;;;22.08;46.78
8637;BME280;4356;49.068;8.658;2023-05-10T10:15:14;99579.22;;;22.04;46.84
8637;BME280;4356;49.068;8.658;2023-05-10T10:17:40;99590.25;;;22.09;46.85
8637;BME280;4356;49.068;8.658;2023-05-10T10:20:07;99599.03;;;22.11;46.74
8637;BME280;4356;49.068;8.658;2023-05-10T10:22:33;99600.09;;;22.10;46.71
8637;BME280;4356;49.068;8.658;2023-05-10T10:24:59;99597.63;;;22.09;46.80
8637;BME280;4356;49.068;8.658;2023-05-10T10:27:36;99606.41;;;22.11;46.86
8637;BME280;4356;49.068;8.658;2023-05-10T10:35:45;99586.41;;;22.10;46.80
8637;BME280;4356;49.068;8.658;2023-05-10T10:38:12;99591.66;;;22.12;46.75
8637;BME280;4356;49.068;8.658;2023-05-10T10:40:39;99592.72;;;22.11;46.84
8637;BME280;4356;49.068;8.658;2023-05-10T10:43:23;99595.78;;;22.14;46.81
8637;BME280;4356;49.068;8.658;2023-05-10T10:46:09;99590.03;;;22.16;46.78
8637;BME280;4356;49.068;8.658;2023-05-10T10:48:35;99588.16;;;22.16;46.61
8637;BME280;4356;49.068;8.658;2023-05-10T10:51:02;99596.09;;;22.18;46.80
8637;BME280;4356;49.068;8.658;2023-05-10T10:53:28;99597.78;;;22.19;46.84
8637;BME280;4356;49.068;8.658;2023-05-10T10:56:14;99586.81;;;22.19;46.56
8637;BME280;4356;49.068;8.658;2023-05-10T10:58:41;99581.34;;;22.19;46.35
8637;BME280;4356;49.068;8.658;2023-05-10T11:03:39;99567.34;;;22.15;46.63
8637;BME280;4356;49.068;8.658;2023-05-10T11:06:05;99582.25;;;22.24;46.42
8637;BME280;4356;49.068;8.658;2023-05-10T11:08:32;99587.47;;;22.26;46.45
8637;BME280;4356;49.068;8.658;2023-05-10T11:13:46;99589.41;;;22.30;46.53
8637;BME280;4356;49.068;8.658;2023-05-10T11:16:22;99595.47;;;22.32;46.64
8637;BME280;4356;49.068;8.658;2023-05-10T11:19:07;99597.94;;;22.34;46.42
8637;BME280;4356;49.068;8.658;2023-05-10T11:21:36;99592.72;;;22.32;46.21
8637;BME280;4356;49.068;8.658;2023-05-10T11:24:14;99585.63;;;22.31;46.27
8637;BME280;4356;49.068;8.658;2023-05-10T11:26:39;99594.47;;;22.38;46.37
8637;BME280;4356;49.068;8.658;2023-05-10T11:29:05;99593.88;;;22.36;46.06
8637;BME280;4356;49.068;8.658;2023-05-10T11:31:31;99588.22;;;22.43;45.95
8637;BME280;4356;49.068;8.658;2023-05-10T11:33:58;99583.56;;;22.43;46.06
8637;BME280;4356;49.068;8.658;2023-05-10T11:36:28;99591.78;;;22.43;46.22
8637;BME280;4356;49.068;8.658;2023-05-10T11:38:55;99589.31;;;22.42;46.06
8637;BME280;4356;49.068;8.658;2023-05-10T11:41:22;99596.25;;;22.49;45.94
8637;BME280;4356;49.068;8.658;2023-05-10T11:43:52;99601.78;;;22.55;45.89
8637;BME280;4356;49.068;8.658;2023-05-10T11:46:20;99588.34;;;22.53;45.77
8637;BME280;4356;49.068;8.658;2023-05-10T11:48:48;99602.38;;;22.57;45.70
8637;BME280;4356;49.068;8.658;2023-05-10T11:51:15;99595.00;;;22.57;45.72
8637;BME280;4356;49.068;8.658;2023-05-10T11:53:44;99605.19;;;22.62;45.75
8637;BME280;4356;49.068;8.658;2023-05-10T11:56:10;99602.19;;;22.63;45.40
8637;BME280;4356;49.068;8.658;2023-05-10T11:58:38;99607.66;;;22.63;45.50
8637;BME280;4356;49.068;8.658;2023-05-10T12:01:05;99615.13;;;22.68;45.42
8637;BME280;4356;49.068;8.658;2023-05-10T12:03:32;99619.50;;;22.69;45.46
8637;BME280;4356;49.068;8.658;2023-05-10T12:05:58;99610.22;;;22.70;45.40
8637;BME280;4356;49.068;8.658;2023-05-10T12:08:26;99615.19;;;22.73;45.44
8637;BME280;4356;49.068;8.658;2023-05-10T12:10:54;99614.91;;;22.74;45.20
8637;BME280;4356;49.068;8.658;2023-05-10T12:13:28;99602.06;;;22.75;45.15
8637;BME280;4356;49.068;8.658;2023-05-10T12:15:57;99615.22;;;22.78;45.19
8637;BME280;4356;49.068;8.658;2023-05-10T12:18:24;99613.31;;;22.78;45.35
8637;BME280;4356;49.068;8.658;2023-05-10T12:20:53;99603.47;;;22.77;45.26
8637;BME280;4356;49.068;8.658;2023-05-10T12:23:21;99609.75;;;22.78;45.24
8637;BME280;4356;49.068;8.658;2023-05-10T12:25:47;99613.63;;;22.82;45.07
8637;BME280;4356;49.068;8.658;2023-05-10T12:28:12;99620.25;;;22.86;45.30
8637;BME280;4356;49.068;8.658;2023-05-10T12:30:38;99614.47;;;22.82;45.25
8637;BME280;4356;49.068;8.658;2023-05-10T12:33:09;99619.75;;;22.89;44.93
8637;BME280;4356;49.068;8.658;2023-05-10T12:35:53;99622.16;;;22.85;44.92
8637;BME280;4356;49.068;8.658;2023-05-10T12:38:40;99625.78;;;22.91;45.02
8637;BME280;4356;49.068;8.658;2023-05-10T12:41:17;99611.78;;;22.87;44.96
8637;BME280;4356;49.068;8.658;2023-05-10T12:43:44;99615.94;;;22.90;44.96
8637;BME280;4356;49.068;8.658;2023-05-10T12:46:12;99626.09;;;22.94;45.02
8637;BME280;4356;49.068;8.658;2023-05-10T12:48:40;99621.47;;;22.95;44.81
8637;BME280;4356;49.068;8.658;2023-05-10T12:51:09;99630.00;;;22.98;44.66
8637;BME280;4356;49.068;8.658;2023-05-10T12:53:37;99635.78;;;23.02;44.65
8637;BME280;4356;49.068;8.658;2023-05-10T12:56:03;99627.56;;;23.02;44.80
8637;BME280;4356;49.068;8.658;2023-05-10T12:58:28;99624.28;;;23.05;44.80
8637;BME280;4356;49.068;8.658;2023-05-10T13:00:54;99623.22;;;23.06;44.88
8637;BME280;4356;49.068;8.658;2023-05-10T13:03:22;99617.75;;;23.06;44.60
8637;BME280;4356;49.068;8.658;2023-05-10T13:05:48;99617.53;;;23.12;44.58
8637;BME280;4356;49.068;8.658;2023-05-10T13:08:14;99617.53;;;23.12;44.46
8637;BME280;4356;49.068;8.658;2023-05-10T13:10:39;99609.03;;;23.14;44.25
8637;BME280;4356;49.068;8.658;2023-05-10T13:13:06;99597.47;;;23.07;44.25
8637;BME280;4356;49.068;8.658;2023-05-10T13:15:32;99613.50;;;23.20;44.30
8637;BME280;4356;49.068;8.658;2023-05-10T13:17:58;99605.84;;;23.22;44.29
8637;BME280;4356;49.068;8.658;2023-05-10T13:20:25;99599.78;;;23.20;44.01
8637;BME280;4356;49.068;8.658;2023-05-10T13:22:50;99592.41;;;23.20;43.76
8637;BME280;4356;49.068;8.658;2023-05-10T13:25:16;99600.94;;;23.24;43.87
8637;BME280;4356;49.068;8.658;2023-05-10T13:27:42;99610.06;;;23.29;43.80
8637;BME280;4356;49.068;8.658;2023-05-10T13:30:08;99583.66;;;23.23;43.77
8637;BME280;4356;49.068;8.658;2023-05-10T13:32:34;99597.94;;;23.25;43.65
8637;BME280;4356;49.068;8.658;2023-05-10T13:35:03;99604.63;;;23.34;43.56
8637;BME280;4356;49.068;8.658;2023-05-10T13:37:30;99595.84;;;23.37;43.53
8637;BME280;4356;49.068;8.658;2023-05-10T13:39:56;99592.31;;;23.37;43.71
8637;BME280;4356;49.068;8.658;2023-05-10T13:42:22;99584.28;;;23.30;43.49
8637;BME280;4356;49.068;8.658;2023-05-10T13:44:49;99588.19;;;23.39;43.65
8637;BME280;4356;49.068;8.658;2023-05-10T13:47:14;99584.97;;;23.42;43.10
8637;BME280;4356;49.068;8.658;2023-05-10T13:49:40;99597.03;;;23.46;43.12
8637;BME280;4356;49.068;8.658;2023-05-10T13:52:06;99589.38;;;23.48;43.13